sensor_id;sensor_type;location;lat;lon;timestamp;temperature;humidity
76577;DHT22;65441;44.748;37.600;2023-05-07T00:00:06;18.06;71.22
76577;DHT22;65441;44.748;37.600;2023-05-07T00:02:36;18.06;70.84
76577;DHT22;65441;44.748;37.600;2023-05-07T00:05:08;18.08;71.30
76577;DHT22;65441;44.748;37.600;2023-05-07T00:07:37;17.83;71.38
76577;DHT22;65441;44.748;37.600;2023-05-07T00:10:07;17.99;70.89
76577;DHT22;65441;44.748;37.600;2023-05-07T00:12:36;17.84;71.30
76577;DHT22;65441;44.748;37.600;2023-05-07T00:15:06;17.87;71.92
76577;DHT22;65441;44.748;37.600;2023-05-07T00:17:36;17.60;72.03
76577;DHT22;65441;44.748;37.600;2023-05-07T00:20:07;17.51;72.52
76577;DHT22;65441;44.748;37.600;2023-05-07T00:22:36;17.47;72.83
76577;DHT22;65441;44.748;37.600;2023-05-07T00:25:06;17.48;75.60
76577;DHT22;65441;44.748;37.600;2023-05-07T00:27:35;17.73;72.38
76577;DHT22;65441;44.748;37.600;2023-05-07T00:30:05;17.69;72.38
76577;DHT22;65441;44.748;37.600;2023-05-07T00:32:35;17.68;72.96
76577;DHT22;65441;44.748;37.600;2023-05-07T00:35:07;17.79;72.05
76577;DHT22;65441;44.748;37.600;2023-05-07T00:37:36;17.79;71.23
76577;DHT22;65441;44.748;37.600;2023-05-07T00:40:07;17.89;70.55
76577;DHT22;65441;44.748;37.600;2023-05-07T00:42:36;18.03;71.19
76577;DHT22;65441;44.748;37.600;2023-05-07T00:45:06;17.75;71.64
76577;DHT22;65441;44.748;37.600;2023-05-07T00:47:35;18.10;70.78
76577;DHT22;65441;44.748;37.600;2023-05-07T00:50:08;18.02;70.07
76577;DHT22;65441;44.748;37.600;2023-05-07T00:52:38;18.21;72.63
76577;DHT22;65441;44.748;37.600;2023-05-07T00:55:07;18.04;70.88
76577;DHT22;65441;44.748;37.600;2023-05-07T00:57:37;18.17;71.43
76577;DHT22;65441;44.748;37.600;2023-05-07T01:00:09;17.68;71.06
76577;DHT22;65441;44.748;37.600;2023-05-07T01:02:40;17.51;72.22
76577;DHT22;65441;44.748;37.600;2023-05-07T01:05:12;17.79;73.50
76577;DHT22;65441;44.748;37.600;2023-05-07T01:07:43;17.79;71.36
76577;DHT22;65441;44.748;37.600;2023-05-07T01:10:13;17.84;70.62
76577;DHT22;65441;44.748;37.600;2023-05-07T01:12:43;17.91;71.10
76577;DHT22;65441;44.748;37.600;2023-05-07T01:15:14;17.83;71.29
76577;DHT22;65441;44.748;37.600;2023-05-07T01:17:44;17.73;72.19
76577;DHT22;65441;44.748;37.600;2023-05-07T01:20:20;17.65;71.25
76577;DHT22;65441;44.748;37.600;2023-05-07T01:22:55;17.39;72.41
76577;DHT22;65441;44.748;37.600;2023-05-07T01:25:24;17.69;71.26
76577;DHT22;65441;44.748;37.600;2023-05-07T01:27:57;17.52;71.15
76577;DHT22;65441;44.748;37.600;2023-05-07T01:30:30;17.67;71.97
76577;DHT22;65441;44.748;37.600;2023-05-07T01:33:06;17.85;71.96
76577;DHT22;65441;44.748;37.600;2023-05-07T01:35:39;17.47;73.05
76577;DHT22;65441;44.748;37.600;2023-05-07T01:38:12;17.05;75.79
76577;DHT22;65441;44.748;37.600;2023-05-07T01:40:42;17.40;74.29
76577;DHT22;65441;44.748;37.600;2023-05-07T01:43:11;17.36;74.89
76577;DHT22;65441;44.748;37.600;2023-05-07T01:45:41;17.23;75.48
76577;DHT22;65441;44.748;37.600;2023-05-07T01:48:13;17.41;74.61
76577;DHT22;65441;44.748;37.600;2023-05-07T01:50:43;17.14;73.93
76577;DHT22;65441;44.748;37.600;2023-05-07T01:53:14;17.04;75.12
76577;DHT22;65441;44.748;37.600;2023-05-07T01:55:43;16.63;76.44
76577;DHT22;65441;44.748;37.600;2023-05-07T01:58:13;16.70;76.37
76577;DHT22;65441;44.748;37.600;2023-05-07T02:00:42;16.84;74.58
76577;DHT22;65441;44.748;37.600;2023-05-07T02:03:11;16.69;75.68
76577;DHT22;65441;44.748;37.600;2023-05-07T02:05:48;16.72;75.83
76577;DHT22;65441;44.748;37.600;2023-05-07T02:08:26;16.60;76.52
76577;DHT22;65441;44.748;37.600;2023-05-07T02:10:56;16.46;76.03
76577;DHT22;65441;44.748;37.600;2023-05-07T02:13:28;16.46;75.32
76577;DHT22;65441;44.748;37.600;2023-05-07T02:15:58;16.31;75.99
76577;DHT22;65441;44.748;37.600;2023-05-07T02:18:28;16.10;77.12
76577;DHT22;65441;44.748;37.600;2023-05-07T02:20:57;16.04;76.28
76577;DHT22;65441;44.748;37.600;2023-05-07T02:23:28;15.89;77.18
76577;DHT22;65441;44.748;37.600;2023-05-07T02:25:57;15.96;77.28
76577;DHT22;65441;44.748;37.600;2023-05-07T02:28:26;15.87;77.72
76577;DHT22;65441;44.748;37.600;2023-05-07T02:31:00;15.93;77.66
76577;DHT22;65441;44.748;37.600;2023-05-07T02:33:30;15.72;78.16
76577;DHT22;65441;44.748;37.600;2023-05-07T02:36:05;15.48;80.01
76577;DHT22;65441;44.748;37.600;2023-05-07T02:38:38;15.18;81.36
76577;DHT22;65441;44.748;37.600;2023-05-07T02:41:07;15.10;81.03
76577;DHT22;65441;44.748;37.600;2023-05-07T02:43:39;14.95;82.49
76577;DHT22;65441;44.748;37.600;2023-05-07T02:46:09;14.88;82.55
76577;DHT22;65441;44.748;37.600;2023-05-07T02:48:41;14.89;81.23
76577;DHT22;65441;44.748;37.600;2023-05-07T02:51:13;14.87;82.16
76577;DHT22;65441;44.748;37.600;2023-05-07T02:53:45;14.97;81.12
76577;DHT22;65441;44.748;37.600;2023-05-07T02:56:14;15.01;81.30
76577;DHT22;65441;44.748;37.600;2023-05-07T02:58:44;15.12;81.39
76577;DHT22;65441;44.748;37.600;2023-05-07T03:01:14;15.15;80.77
76577;DHT22;65441;44.748;37.600;2023-05-07T03:03:52;15.02;81.09
76577;DHT22;65441;44.748;37.600;2023-05-07T03:06:21;14.96;81.72
76577;DHT22;65441;44.748;37.600;2023-05-07T03:08:52;14.96;81.05
76577;DHT22;65441;44.748;37.600;2023-05-07T03:11:21;14.99;81.39
76577;DHT22;65441;44.748;37.600;2023-05-07T03:13:50;14.95;81.67
76577;DHT22;65441;44.748;37.600;2023-05-07T03:16:21;14.79;81.62
76577;DHT22;65441;44.748;37.600;2023-05-07T03:18:50;14.65;82.49
76577;DHT22;65441;44.748;37.600;2023-05-07T03:21:19;14.58;82.38
76577;DHT22;65441;44.748;37.600;2023-05-07T03:23:48;14.67;82.23
76577;DHT22;65441;44.748;37.600;2023-05-07T03:26:18;14.71;81.63
76577;DHT22;65441;44.748;37.600;2023-05-07T03:28:47;14.83;81.28
76577;DHT22;65441;44.748;37.600;2023-05-07T03:31:18;14.88;81.62
76577;DHT22;65441;44.748;37.600;2023-05-07T03:33:51;14.91;80.89
76577;DHT22;65441;44.748;37.600;2023-05-07T03:36:20;14.87;80.94
76577;DHT22;65441;44.748;37.600;2023-05-07T03:38:49;14.79;80.87
76577;DHT22;65441;44.748;37.600;2023-05-07T03:41:23;14.66;81.39
76577;DHT22;65441;44.748;37.600;2023-05-07T03:43:53;14.67;81.32
76577;DHT22;65441;44.748;37.600;2023-05-07T03:46:22;14.67;81.89
76577;DHT22;65441;44.748;37.600;2023-05-07T03:48:53;14.62;82.13
76577;DHT22;65441;44.748;37.600;2023-05-07T03:51:22;14.57;81.91
76577;DHT22;65441;44.748;37.600;2023-05-07T03:53:52;14.55;81.25
76577;DHT22;65441;44.748;37.600;2023-05-07T03:56:23;14.58;81.72
76577;DHT22;65441;44.748;37.600;2023-05-07T03:58:56;14.64;81.59
76577;DHT22;65441;44.748;37.600;2023-05-07T04:01:25;14.60;81.44
76577;DHT22;65441;44.748;37.600;2023-05-07T04:03:55;14.43;82.12
76577;DHT22;65441;44.748;37.600;2023-05-07T04:06:25;14.53;81.93
76577;DHT22;65441;44.748;37.600;2023-05-07T04:08:55;14.43;81.72
76577;DHT22;65441;44.748;37.600;2023-05-07T04:11:26;14.37;81.57
76577;DHT22;65441;44.748;37.600;2023-05-07T04:13:56;14.40;81.52
76577;DHT22;65441;44.748;37.600;2023-05-07T04:16:25;14.41;81.42
76577;DHT22;65441;44.748;37.600;2023-05-07T04:18:54;14.25;81.55
76577;DHT22;65441;44.748;37.600;2023-05-07T04:21:23;14.21;82.56
76577;DHT22;65441;44.748;37.600;2023-05-07T04:23:53;14.18;82.70
76577;DHT22;65441;44.748;37.600;2023-05-07T04:26:22;14.13;83.07
76577;DHT22;65441;44.748;37.600;2023-05-07T04:28:53;14.14;83.00
76577;DHT22;65441;44.748;37.600;2023-05-07T04:31:22;14.15;83.25
76577;DHT22;65441;44.748;37.600;2023-05-07T04:33:54;13.92;83.48
76577;DHT22;65441;44.748;37.600;2023-05-07T04:36:27;13.96;83.74
76577;DHT22;65441;44.748;37.600;2023-05-07T04:39:10;13.85;83.97
76577;DHT22;65441;44.748;37.600;2023-05-07T04:41:42;13.98;83.61
76577;DHT22;65441;44.748;37.600;2023-05-07T04:44:14;13.85;83.95
76577;DHT22;65441;44.748;37.600;2023-05-07T04:46:44;13.93;84.65
76577;DHT22;65441;44.748;37.600;2023-05-07T04:49:13;14.14;82.55
76577;DHT22;65441;44.748;37.600;2023-05-07T04:51:43;14.14;82.69
76577;DHT22;65441;44.748;37.600;2023-05-07T04:54:12;14.08;83.35
76577;DHT22;65441;44.748;37.600;2023-05-07T04:56:41;14.06;83.92
76577;DHT22;65441;44.748;37.600;2023-05-07T04:59:11;14.43;83.40
76577;DHT22;65441;44.748;37.600;2023-05-07T05:01:41;14.42;82.23
76577;DHT22;65441;44.748;37.600;2023-05-07T05:04:11;14.38;83.04
76577;DHT22;65441;44.748;37.600;2023-05-07T05:06:41;14.28;83.12
76577;DHT22;65441;44.748;37.600;2023-05-07T05:09:11;14.39;83.20
76577;DHT22;65441;44.748;37.600;2023-05-07T05:11:42;14.63;83.00
76577;DHT22;65441;44.748;37.600;2023-05-07T05:14:11;14.91;82.37
76577;DHT22;65441;44.748;37.600;2023-05-07T05:16:43;15.15;80.74
76577;DHT22;65441;44.748;37.600;2023-05-07T05:19:12;15.21;80.19
76577;DHT22;65441;44.748;37.600;2023-05-07T05:21:41;15.13;80.47
76577;DHT22;65441;44.748;37.600;2023-05-07T05:24:11;14.95;80.11
76577;DHT22;65441;44.748;37.600;2023-05-07T05:26:41;14.99;80.01
76577;DHT22;65441;44.748;37.600;2023-05-07T05:29:10;14.97;78.36
76577;DHT22;65441;44.748;37.600;2023-05-07T05:31:43;14.95;79.08
76577;DHT22;65441;44.748;37.600;2023-05-07T05:34:12;14.98;78.43
76577;DHT22;65441;44.748;37.600;2023-05-07T05:36:42;15.02;78.64
76577;DHT22;65441;44.748;37.600;2023-05-07T05:39:11;14.69;79.46
76577;DHT22;65441;44.748;37.600;2023-05-07T05:41:41;14.57;80.04
76577;DHT22;65441;44.748;37.600;2023-05-07T05:44:10;14.44;80.28
76577;DHT22;65441;44.748;37.600;2023-05-07T05:46:39;14.53;80.52
76577;DHT22;65441;44.748;37.600;2023-05-07T05:49:10;14.43;80.27
76577;DHT22;65441;44.748;37.600;2023-05-07T05:51:39;14.45;79.60
76577;DHT22;65441;44.748;37.600;2023-05-07T05:54:09;14.53;80.44
76577;DHT22;65441;44.748;37.600;2023-05-07T05:56:41;14.67;79.27
76577;DHT22;65441;44.748;37.600;2023-05-07T05:59:11;14.74;79.27
76577;DHT22;65441;44.748;37.600;2023-05-07T06:01:40;15.12;78.46
76577;DHT22;65441;44.748;37.600;2023-05-07T06:04:11;15.80;77.37
76577;DHT22;65441;44.748;37.600;2023-05-07T06:06:40;15.87;76.00
76577;DHT22;65441;44.748;37.600;2023-05-07T06:09:09;15.82;74.78
76577;DHT22;65441;44.748;37.600;2023-05-07T06:11:43;15.62;76.14
76577;DHT22;65441;44.748;37.600;2023-05-07T06:14:13;16.17;75.28
76577;DHT22;65441;44.748;37.600;2023-05-07T06:16:43;16.43;74.34
76577;DHT22;65441;44.748;37.600;2023-05-07T06:19:14;16.36;73.26
76577;DHT22;65441;44.748;37.600;2023-05-07T06:21:47;16.84;73.09
76577;DHT22;65441;44.748;37.600;2023-05-07T06:24:17;17.35;72.77
76577;DHT22;65441;44.748;37.600;2023-05-07T06:26:46;17.17;71.49
76577;DHT22;65441;44.748;37.600;2023-05-07T06:29:15;16.90;72.24
76577;DHT22;65441;44.748;37.600;2023-05-07T06:31:46;16.74;72.13
76577;DHT22;65441;44.748;37.600;2023-05-07T06:34:17;17.10;71.60
76577;DHT22;65441;44.748;37.600;2023-05-07T06:36:47;17.04;70.51
76577;DHT22;65441;44.748;37.600;2023-05-07T06:39:25;17.16;71.19
76577;DHT22;65441;44.748;37.600;2023-05-07T06:41:54;17.13;71.59
76577;DHT22;65441;44.748;37.600;2023-05-07T06:44:31;16.79;72.83
76577;DHT22;65441;44.748;37.600;2023-05-07T06:47:09;16.77;72.57
76577;DHT22;65441;44.748;37.600;2023-05-07T06:49:42;16.84;70.35
76577;DHT22;65441;44.748;37.600;2023-05-07T06:52:15;16.80;70.67
76577;DHT22;65441;44.748;37.600;2023-05-07T06:54:44;16.56;72.06
76577;DHT22;65441;44.748;37.600;2023-05-07T06:57:16;16.84;72.65
76577;DHT22;65441;44.748;37.600;2023-05-07T06:59:45;16.94;71.63
76577;DHT22;65441;44.748;37.600;2023-05-07T07:02:15;16.88;70.42
76577;DHT22;65441;44.748;37.600;2023-05-07T07:04:45;17.05;71.31
76577;DHT22;65441;44.748;37.600;2023-05-07T07:07:15;17.11;70.86
76577;DHT22;65441;44.748;37.600;2023-05-07T07:09:47;17.17;72.00
76577;DHT22;65441;44.748;37.600;2023-05-07T07:12:19;17.23;71.12
76577;DHT22;65441;44.748;37.600;2023-05-07T07:14:48;17.47;69.53
76577;DHT22;65441;44.748;37.600;2023-05-07T07:17:18;17.80;71.33
76577;DHT22;65441;44.748;37.600;2023-05-07T07:19:52;17.77;68.67
76577;DHT22;65441;44.748;37.600;2023-05-07T07:22:21;17.93;69.39
76577;DHT22;65441;44.748;37.600;2023-05-07T07:24:50;17.96;68.73
76577;DHT22;65441;44.748;37.600;2023-05-07T07:27:20;17.53;70.10
76577;DHT22;65441;44.748;37.600;2023-05-07T07:29:49;17.77;68.65
76577;DHT22;65441;44.748;37.600;2023-05-07T07:32:19;17.63;67.60
76577;DHT22;65441;44.748;37.600;2023-05-07T07:34:50;17.44;68.75
76577;DHT22;65441;44.748;37.600;2023-05-07T07:37:19;17.38;67.39
76577;DHT22;65441;44.748;37.600;2023-05-07T07:39:48;17.51;69.22
76577;DHT22;65441;44.748;37.600;2023-05-07T07:42:18;17.53;68.93
76577;DHT22;65441;44.748;37.600;2023-05-07T07:44:48;17.90;68.13
76577;DHT22;65441;44.748;37.600;2023-05-07T07:47:20;17.78;68.43
76577;DHT22;65441;44.748;37.600;2023-05-07T07:49:52;17.33;67.59
76577;DHT22;65441;44.748;37.600;2023-05-07T07:52:24;17.30;69.16
76577;DHT22;65441;44.748;37.600;2023-05-07T07:54:53;16.74;69.38
76577;DHT22;65441;44.748;37.600;2023-05-07T07:57:26;16.99;70.50
76577;DHT22;65441;44.748;37.600;2023-05-07T07:59:56;16.74;70.69
76577;DHT22;65441;44.748;37.600;2023-05-07T08:02:26;16.84;70.14
76577;DHT22;65441;44.748;37.600;2023-05-07T08:04:57;17.30;69.79
76577;DHT22;65441;44.748;37.600;2023-05-07T08:07:26;17.03;69.51
76577;DHT22;65441;44.748;37.600;2023-05-07T08:09:56;16.89;70.26
76577;DHT22;65441;44.748;37.600;2023-05-07T08:12:25;16.61;70.69
76577;DHT22;65441;44.748;37.600;2023-05-07T08:14:56;16.61;70.91
76577;DHT22;65441;44.748;37.600;2023-05-07T08:17:26;16.42;71.21
76577;DHT22;65441;44.748;37.600;2023-05-07T08:19:56;16.47;72.62
76577;DHT22;65441;44.748;37.600;2023-05-07T08:22:25;16.54;70.75
76577;DHT22;65441;44.748;37.600;2023-05-07T08:24:54;16.47;71.73
76577;DHT22;65441;44.748;37.600;2023-05-07T08:27:24;16.79;71.03
76577;DHT22;65441;44.748;37.600;2023-05-07T08:29:53;17.08;70.68
76577;DHT22;65441;44.748;37.600;2023-05-07T08:32:23;17.50;69.52
76577;DHT22;65441;44.748;37.600;2023-05-07T08:34:52;17.44;68.74
76577;DHT22;65441;44.748;37.600;2023-05-07T08:37:23;17.40;68.61
76577;DHT22;65441;44.748;37.600;2023-05-07T08:39:53;17.13;68.85
76577;DHT22;65441;44.748;37.600;2023-05-07T08:42:25;17.07;70.40
76577;DHT22;65441;44.748;37.600;2023-05-07T08:44:57;16.75;71.42
76577;DHT22;65441;44.748;37.600;2023-05-07T08:47:32;16.85;70.38
76577;DHT22;65441;44.748;37.600;2023-05-07T08:50:05;16.60;70.78
76577;DHT22;65441;44.748;37.600;2023-05-07T08:52:38;16.81;72.96
76577;DHT22;65441;44.748;37.600;2023-05-07T08:55:09;16.98;70.47
76577;DHT22;65441;44.748;37.600;2023-05-07T08:57:38;17.15;71.53
76577;DHT22;65441;44.748;37.600;2023-05-07T09:00:12;17.17;69.71
76577;DHT22;65441;44.748;37.600;2023-05-07T09:02:42;17.21;70.31
76577;DHT22;65441;44.748;37.600;2023-05-07T09:05:13;16.93;70.30
76577;DHT22;65441;44.748;37.600;2023-05-07T09:07:44;17.04;71.08
76577;DHT22;65441;44.748;37.600;2023-05-07T09:10:15;17.55;70.13
76577;DHT22;65441;44.748;37.600;2023-05-07T09:12:46;17.72;70.13
76577;DHT22;65441;44.748;37.600;2023-05-07T09:15:19;18.03;68.36
76577;DHT22;65441;44.748;37.600;2023-05-07T09:17:48;17.95;67.87
76577;DHT22;65441;44.748;37.600;2023-05-07T09:20:17;18.00;69.24
76577;DHT22;65441;44.748;37.600;2023-05-07T09:22:49;17.84;68.01
76577;DHT22;65441;44.748;37.600;2023-05-07T09:25:28;18.02;68.57
76577;DHT22;65441;44.748;37.600;2023-05-07T09:27:58;18.35;67.43
76577;DHT22;65441;44.748;37.600;2023-05-07T09:30:28;18.23;67.04
76577;DHT22;65441;44.748;37.600;2023-05-07T09:33:01;18.21;67.68
76577;DHT22;65441;44.748;37.600;2023-05-07T09:35:31;18.32;67.00
76577;DHT22;65441;44.748;37.600;2023-05-07T09:38:08;18.25;67.68
76577;DHT22;65441;44.748;37.600;2023-05-07T09:40:37;18.13;66.87
76577;DHT22;65441;44.748;37.600;2023-05-07T09:43:13;18.14;66.32
76577;DHT22;65441;44.748;37.600;2023-05-07T09:45:56;18.14;66.91
76577;DHT22;65441;44.748;37.600;2023-05-07T09:48:29;18.24;67.20
76577;DHT22;65441;44.748;37.600;2023-05-07T09:51:02;18.24;68.17
76577;DHT22;65441;44.748;37.600;2023-05-07T09:53:38;18.18;67.62
76577;DHT22;65441;44.748;37.600;2023-05-07T09:56:09;17.90;66.70
76577;DHT22;65441;44.748;37.600;2023-05-07T09:58:39;17.88;66.77
76577;DHT22;65441;44.748;37.600;2023-05-07T10:01:11;18.21;67.37
76577;DHT22;65441;44.748;37.600;2023-05-07T10:03:42;18.17;66.98
76577;DHT22;65441;44.748;37.600;2023-05-07T10:06:13;18.23;67.27
76577;DHT22;65441;44.748;37.600;2023-05-07T10:08:44;18.23;66.52
76577;DHT22;65441;44.748;37.600;2023-05-07T10:11:15;17.96;67.28
76577;DHT22;65441;44.748;37.600;2023-05-07T10:13:46;18.03;70.67
76577;DHT22;65441;44.748;37.600;2023-05-07T10:16:17;18.17;66.04
76577;DHT22;65441;44.748;37.600;2023-05-07T10:18:50;17.97;68.77
76577;DHT22;65441;44.748;37.600;2023-05-07T10:21:23;18.33;67.97
76577;DHT22;65441;44.748;37.600;2023-05-07T10:24:05;18.38;66.89
76577;DHT22;65441;44.748;37.600;2023-05-07T10:26:37;18.28;68.59
76577;DHT22;65441;44.748;37.600;2023-05-07T10:29:12;18.69;66.64
76577;DHT22;65441;44.748;37.600;2023-05-07T10:31:57;18.50;66.40
76577;DHT22;65441;44.748;37.600;2023-05-07T10:34:29;18.51;65.50
76577;DHT22;65441;44.748;37.600;2023-05-07T10:37:02;18.35;67.71
76577;DHT22;65441;44.748;37.600;2023-05-07T10:39:34;18.13;69.07
76577;DHT22;65441;44.748;37.600;2023-05-07T10:42:08;18.55;70.03
76577;DHT22;65441;44.748;37.600;2023-05-07T10:44:39;18.65;67.79
76577;DHT22;65441;44.748;37.600;2023-05-07T10:47:16;18.63;67.10
76577;DHT22;65441;44.748;37.600;2023-05-07T10:50:22;18.42;66.63
76577;DHT22;65441;44.748;37.600;2023-05-07T10:53:24;18.71;68.50
76577;DHT22;65441;44.748;37.600;2023-05-07T10:56:30;18.67;67.69
76577;DHT22;65441;44.748;37.600;2023-05-07T10:59:34;18.64;67.39
76577;DHT22;65441;44.748;37.600;2023-05-07T11:02:21;18.49;69.14
76577;DHT22;65441;44.748;37.600;2023-05-07T11:05:19;18.03;68.25
76577;DHT22;65441;44.748;37.600;2023-05-07T11:07:57;18.03;69.33
76577;DHT22;65441;44.748;37.600;2023-05-07T11:10:49;18.05;69.58
76577;DHT22;65441;44.748;37.600;2023-05-07T11:13:44;18.21;69.88
76577;DHT22;65441;44.748;37.600;2023-05-07T11:16:34;17.77;68.80
76577;DHT22;65441;44.748;37.600;2023-05-07T11:19:50;17.75;70.32
76577;DHT22;65441;44.748;37.600;2023-05-07T11:22:44;17.97;71.73
76577;DHT22;65441;44.748;37.600;2023-05-07T11:25:31;17.84;70.06
76577;DHT22;65441;44.748;37.600;2023-05-07T11:28:11;17.89;69.13
76577;DHT22;65441;44.748;37.600;2023-05-07T11:30:52;17.39;71.15
76577;DHT22;65441;44.748;37.600;2023-05-07T11:33:22;17.37;70.84
76577;DHT22;65441;44.748;37.600;2023-05-07T11:35:56;17.49;72.67
76577;DHT22;65441;44.748;37.600;2023-05-07T11:38:35;17.37;75.67
76577;DHT22;65441;44.748;37.600;2023-05-07T11:41:05;17.17;71.92
76577;DHT22;65441;44.748;37.600;2023-05-07T11:43:35;17.13;72.25
76577;DHT22;65441;44.748;37.600;2023-05-07T11:46:10;17.04;72.75
76577;DHT22;65441;44.748;37.600;2023-05-07T11:48:39;16.95;72.48
76577;DHT22;65441;44.748;37.600;2023-05-07T11:51:11;16.99;74.38
76577;DHT22;65441;44.748;37.600;2023-05-07T11:53:43;16.96;73.33
76577;DHT22;65441;44.748;37.600;2023-05-07T11:56:13;16.76;73.27
76577;DHT22;65441;44.748;37.600;2023-05-07T11:58:44;16.69;73.49
76577;DHT22;65441;44.748;37.600;2023-05-07T12:01:18;16.57;76.19
76577;DHT22;65441;44.748;37.600;2023-05-07T12:03:47;16.70;75.09
76577;DHT22;65441;44.748;37.600;2023-05-07T12:06:17;16.94;74.08
76577;DHT22;65441;44.748;37.600;2023-05-07T12:08:46;16.77;73.79
76577;DHT22;65441;44.748;37.600;2023-05-07T12:11:22;16.94;74.48
76577;DHT22;65441;44.748;37.600;2023-05-07T12:13:54;16.92;73.17
76577;DHT22;65441;44.748;37.600;2023-05-07T12:16:25;16.92;73.37
76577;DHT22;65441;44.748;37.600;2023-05-07T12:18:54;17.09;73.26
76577;DHT22;65441;44.748;37.600;2023-05-07T12:21:23;17.20;73.05
76577;DHT22;65441;44.748;37.600;2023-05-07T12:23:53;16.90;73.41
76577;DHT22;65441;44.748;37.600;2023-05-07T12:26:22;16.99;73.39
76577;DHT22;65441;44.748;37.600;2023-05-07T12:28:52;16.98;73.46
76577;DHT22;65441;44.748;37.600;2023-05-07T12:31:26;16.91;74.85
76577;DHT22;65441;44.748;37.600;2023-05-07T12:33:55;17.33;74.52
76577;DHT22;65441;44.748;37.600;2023-05-07T12:36:24;17.02;74.47
76577;DHT22;65441;44.748;37.600;2023-05-07T12:38:54;16.93;74.10
76577;DHT22;65441;44.748;37.600;2023-05-07T12:41:23;16.92;75.08
76577;DHT22;65441;44.748;37.600;2023-05-07T12:43:59;16.85;75.60
76577;DHT22;65441;44.748;37.600;2023-05-07T12:46:30;16.90;75.92
76577;DHT22;65441;44.748;37.600;2023-05-07T12:49:01;16.96;75.00
76577;DHT22;65441;44.748;37.600;2023-05-07T12:51:30;16.98;74.79
76577;DHT22;65441;44.748;37.600;2023-05-07T12:54:00;17.08;74.55
76577;DHT22;65441;44.748;37.600;2023-05-07T12:56:31;17.13;73.83
76577;DHT22;65441;44.748;37.600;2023-05-07T12:59:00;16.98;74.06
76577;DHT22;65441;44.748;37.600;2023-05-07T13:01:30;17.01;74.25
76577;DHT22;65441;44.748;37.600;2023-05-07T13:04:01;17.15;74.87
76577;DHT22;65441;44.748;37.600;2023-05-07T13:06:31;17.16;74.15
76577;DHT22;65441;44.748;37.600;2023-05-07T13:09:00;17.21;74.23
76577;DHT22;65441;44.748;37.600;2023-05-07T13:11:32;17.21;74.58
76577;DHT22;65441;44.748;37.600;2023-05-07T13:14:01;17.22;74.51
76577;DHT22;65441;44.748;37.600;2023-05-07T13:16:32;17.34;74.54
76577;DHT22;65441;44.748;37.600;2023-05-07T13:19:01;17.26;74.37
76577;DHT22;65441;44.748;37.600;2023-05-07T13:21:31;17.32;74.10
76577;DHT22;65441;44.748;37.600;2023-05-07T13:24:00;17.37;74.31
76577;DHT22;65441;44.748;37.600;2023-05-07T13:26:30;17.17;74.20
76577;DHT22;65441;44.748;37.600;2023-05-07T13:29:00;17.22;75.07
76577;DHT22;65441;44.748;37.600;2023-05-07T13:31:29;17.30;75.15
76577;DHT22;65441;44.748;37.600;2023-05-07T13:33:59;17.43;74.62
76577;DHT22;65441;44.748;37.600;2023-05-07T13:36:28;17.61;74.24
76577;DHT22;65441;44.748;37.600;2023-05-07T13:39:00;17.52;74.32
76577;DHT22;65441;44.748;37.600;2023-05-07T13:41:29;17.54;73.99
76577;DHT22;65441;44.748;37.600;2023-05-07T13:43:59;17.61;73.57
76577;DHT22;65441;44.748;37.600;2023-05-07T13:46:31;17.65;73.47
76577;DHT22;65441;44.748;37.600;2023-05-07T13:49:02;17.49;73.77
76577;DHT22;65441;44.748;37.600;2023-05-07T13:51:31;17.47;74.00
76577;DHT22;65441;44.748;37.600;2023-05-07T13:54:00;17.54;73.75
76577;DHT22;65441;44.748;37.600;2023-05-07T13:56:29;17.41;73.38
76577;DHT22;65441;44.748;37.600;2023-05-07T13:58:59;17.20;74.44
76577;DHT22;65441;44.748;37.600;2023-05-07T14:01:28;17.21;74.25
76577;DHT22;65441;44.748;37.600;2023-05-07T14:04:01;17.16;74.43
76577;DHT22;65441;44.748;37.600;2023-05-07T14:06:30;17.21;73.83
76577;DHT22;65441;44.748;37.600;2023-05-07T14:08:59;17.20;74.32
76577;DHT22;65441;44.748;37.600;2023-05-07T14:11:28;17.31;73.83
76577;DHT22;65441;44.748;37.600;2023-05-07T14:13:57;17.28;74.54
76577;DHT22;65441;44.748;37.600;2023-05-07T14:16:26;17.11;75.47
76577;DHT22;65441;44.748;37.600;2023-05-07T14:18:56;17.05;75.51
76577;DHT22;65441;44.748;37.600;2023-05-07T14:21:26;17.06;75.79
76577;DHT22;65441;44.748;37.600;2023-05-07T14:23:55;16.95;75.95
76577;DHT22;65441;44.748;37.600;2023-05-07T14:26:25;16.84;76.26
76577;DHT22;65441;44.748;37.600;2023-05-07T14:28:54;16.88;75.56
76577;DHT22;65441;44.748;37.600;2023-05-07T14:31:25;16.72;76.85
76577;DHT22;65441;44.748;37.600;2023-05-07T14:33:55;16.75;76.30
76577;DHT22;65441;44.748;37.600;2023-05-07T14:36:28;16.61;77.54
76577;DHT22;65441;44.748;37.600;2023-05-07T14:38:59;16.74;77.24
76577;DHT22;65441;44.748;37.600;2023-05-07T14:41:29;16.72;77.12
76577;DHT22;65441;44.748;37.600;2023-05-07T14:44:00;16.63;77.46
76577;DHT22;65441;44.748;37.600;2023-05-07T14:46:34;16.63;77.10
76577;DHT22;65441;44.748;37.600;2023-05-07T14:49:03;16.70;76.49
76577;DHT22;65441;44.748;37.600;2023-05-07T14:51:34;16.71;76.91
76577;DHT22;65441;44.748;37.600;2023-05-07T14:54:03;16.50;77.47
76577;DHT22;65441;44.748;37.600;2023-05-07T14:56:32;16.49;77.18
76577;DHT22;65441;44.748;37.600;2023-05-07T14:59:02;16.36;77.99
76577;DHT22;65441;44.748;37.600;2023-05-07T15:01:31;16.45;77.65
76577;DHT22;65441;44.748;37.600;2023-05-07T15:04:00;16.43;77.78
76577;DHT22;65441;44.748;37.600;2023-05-07T15:06:29;16.51;77.76
76577;DHT22;65441;44.748;37.600;2023-05-07T15:09:00;16.44;78.29
76577;DHT22;65441;44.748;37.600;2023-05-07T15:11:28;16.39;78.10
76577;DHT22;65441;44.748;37.600;2023-05-07T15:13:58;16.18;78.87
76577;DHT22;65441;44.748;37.600;2023-05-07T15:16:27;16.06;79.97
76577;DHT22;65441;44.748;37.600;2023-05-07T15:18:56;16.03;80.07
76577;DHT22;65441;44.748;37.600;2023-05-07T15:21:25;15.96;80.16
76577;DHT22;65441;44.748;37.600;2023-05-07T15:23:55;15.98;80.10
76577;DHT22;65441;44.748;37.600;2023-05-07T15:26:25;16.01;80.11
76577;DHT22;65441;44.748;37.600;2023-05-07T15:28:54;15.99;80.29
76577;DHT22;65441;44.748;37.600;2023-05-07T15:31:28;16.00;80.20
76577;DHT22;65441;44.748;37.600;2023-05-07T15:34:00;15.89;80.62
76577;DHT22;65441;44.748;37.600;2023-05-07T15:36:29;15.65;81.93
76577;DHT22;65441;44.748;37.600;2023-05-07T15:38:58;15.69;81.48
76577;DHT22;65441;44.748;37.600;2023-05-07T15:41:31;15.72;81.66